createdAt,value
2018-05-04T00:00:34.165Z,0.00
2018-05-04T00:01:34.142Z,0.00
2018-05-04T00:02:34.113Z,0.00
2018-05-04T00:03:34.083Z,0.00
2018-05-04T00:04:34.070Z,0.00
2018-05-04T00:05:34.047Z,0.00
2018-05-04T00:06:34.005Z,0.00
2018-05-04T00:07:33.994Z,0.00
2018-05-04T00:08:33.935Z,0.00
2018-05-04T00:09:33.915Z,0.00
2018-05-04T00:10:33.894Z,0.00
2018-05-04T00:11:33.860Z,0.00
2018-05-04T00:12:33.825Z,0.00
2018-05-04T00:13:33.801Z,0.00
2018-05-04T00:14:33.770Z,0.00
2018-05-04T00:15:33.739Z,0.00
2018-05-04T00:16:33.712Z,0.00
2018-05-04T00:17:33.681Z,0.00
2018-05-04T00:18:33.646Z,0.00
2018-05-04T00:19:33.640Z,0.00
2018-05-04T00:20:33.637Z,0.00
2018-05-04T00:21:33.569Z,0.00
2018-05-04T00:22:33.533Z,0.00
2018-05-04T00:23:33.509Z,0.00
2018-05-04T00:24:33.471Z,0.00
2018-05-04T00:25:33.456Z,0.00
2018-05-04T00:26:33.413Z,0.00
2018-05-04T00:27:33.391Z,0.00
2018-05-04T00:28:33.368Z,0.00
2018-05-04T00:29:33.405Z,0.00
2018-05-04T00:30:33.306Z,0.00
2018-05-04T00:31:33.281Z,0.00
2018-05-04T00:32:33.248Z,0.00
2018-05-04T00:33:33.213Z,0.00
2018-05-04T00:34:33.184Z,0.00
2018-05-04T00:35:33.155Z,0.00
2018-05-04T00:36:33.125Z,0.00
2018-05-04T00:37:33.106Z,0.00
2018-05-04T00:38:33.070Z,0.00
2018-05-04T00:39:33.039Z,0.00
2018-05-04T00:40:33.048Z,0.00
2018-05-04T00:41:32.982Z,0.00
2018-05-04T00:42:32.955Z,0.00
2018-05-04T00:43:32.921Z,0.00
2018-05-04T00:44:32.891Z,0.00
2018-05-04T00:45:32.859Z,0.00
2018-05-04T00:46:32.829Z,0.00
2018-05-04T00:47:32.805Z,0.00
2018-05-04T00:48:32.784Z,0.00
2018-05-04T00:49:32.752Z,0.00
2018-05-04T00:50:32.715Z,0.00
2018-05-04T00:51:32.694Z,0.00
2018-05-04T00:52:32.666Z,0.00
2018-05-04T00:53:32.632Z,0.00
2018-05-04T00:54:32.609Z,0.00
2018-05-04T00:55:32.605Z,0.00
2018-05-04T00:56:32.546Z,0.00
2018-05-04T00:57:32.515Z,0.00
2018-05-04T00:58:32.493Z,0.00
2018-05-04T00:59:32.463Z,0.00
2018-05-04T01:00:32.442Z,0.00
2018-05-04T01:01:32.408Z,0.00
2018-05-04T01:04:15.823Z,0.00
2018-05-04T01:05:15.491Z,0.00
2018-05-04T01:07:23.480Z,0.00
2018-05-04T01:08:23.426Z,0.00
2018-05-04T01:10:27.898Z,0.00
2018-05-04T01:11:27.710Z,0.00
2018-05-04T01:13:32.751Z,0.00
2018-05-04T01:14:32.595Z,0.00
2018-05-04T01:16:45.575Z,0.00
2018-05-04T01:17:45.596Z,0.00
2018-05-04T01:19:51.353Z,0.00
2018-05-04T01:20:51.119Z,0.00
2018-05-04T01:23:01.825Z,0.00
2018-05-04T01:24:01.387Z,0.00
2018-05-04T01:26:05.936Z,0.00
2018-05-04T01:27:05.741Z,0.00
2018-05-04T01:29:11.789Z,0.00
2018-05-04T01:30:11.471Z,0.00
2018-05-04T01:32:30.551Z,0.00
2018-05-04T01:33:30.266Z,0.00
2018-05-04T01:35:36.199Z,0.00
2018-05-04T01:36:36.123Z,0.00
2018-05-04T01:38:40.499Z,0.00
2018-05-04T01:39:40.437Z,0.00
2018-05-04T01:41:46.447Z,0.00
2018-05-04T01:42:46.230Z,0.00
2018-05-04T01:44:49.636Z,0.00
2018-05-04T01:45:49.466Z,0.00
2018-05-04T01:47:57.418Z,0.00
2018-05-04T01:48:57.266Z,0.00
2018-05-04T01:51:01.974Z,0.00
2018-05-04T01:52:00.733Z,0.00
2018-05-04T01:54:08.726Z,0.00
2018-05-04T01:55:08.852Z,0.00
2018-05-04T01:57:08.783Z,0.00
2018-05-04T01:58:08.786Z,0.00
2018-05-04T02:00:33.626Z,0.00
2018-05-04T02:01:33.580Z,0.00
2018-05-04T02:03:37.965Z,0.00
2018-05-04T02:04:37.937Z,0.00
2018-05-04T02:06:41.460Z,0.00
2018-05-04T02:07:41.268Z,0.00
2018-05-04T02:09:51.622Z,0.00
2018-05-04T02:10:51.535Z,0.00
2018-05-04T02:13:01.989Z,0.00
2018-05-04T02:14:01.936Z,0.00
2018-05-04T02:16:05.340Z,0.00
2018-05-04T02:17:05.175Z,0.00
2018-05-04T02:19:08.606Z,0.00
2018-05-04T02:20:08.662Z,0.00
2018-05-04T02:22:11.911Z,0.00
2018-05-04T02:23:11.823Z,0.00
2018-05-04T02:25:17.750Z,0.00
2018-05-04T02:26:17.581Z,0.00
2018-05-04T02:28:24.826Z,0.00
2018-05-04T02:29:24.399Z,0.00
2018-05-04T02:31:28.993Z,0.00
2018-05-04T02:32:28.692Z,0.00
2018-05-04T02:34:33.048Z,0.00
2018-05-04T02:35:32.921Z,0.00
2018-05-04T02:37:33.636Z,0.00
2018-05-04T02:38:33.233Z,0.00
2018-05-04T02:40:37.711Z,0.00
2018-05-04T02:41:37.560Z,0.00
2018-05-04T02:43:45.803Z,0.00
2018-05-04T02:44:45.595Z,0.00
2018-05-04T02:45:45.383Z,0.00
2018-05-04T02:46:45.257Z,0.00
2018-05-04T02:47:45.243Z,0.00
2018-05-04T02:48:45.213Z,0.00
2018-05-04T02:49:45.176Z,0.00
2018-05-04T02:50:45.132Z,0.00
2018-05-04T02:51:45.113Z,0.00
2018-05-04T02:52:45.072Z,0.00
2018-05-04T02:53:45.046Z,0.00
2018-05-04T02:54:45.018Z,0.00
2018-05-04T02:55:44.990Z,0.00
2018-05-04T02:56:44.968Z,0.00
2018-05-04T02:57:44.934Z,0.00
2018-05-04T02:58:44.901Z,0.00
2018-05-04T02:59:44.865Z,0.00
2018-05-04T03:00:44.835Z,0.00
2018-05-04T03:01:44.817Z,0.00
2018-05-04T03:02:44.786Z,0.00
2018-05-04T03:03:44.747Z,0.00
2018-05-04T03:04:44.712Z,0.00
2018-05-04T03:05:44.693Z,0.00
2018-05-04T03:06:44.657Z,0.00
2018-05-04T03:07:44.626Z,0.00
2018-05-04T03:08:44.608Z,0.00
2018-05-04T03:09:44.570Z,0.00
2018-05-04T03:10:44.538Z,0.00
2018-05-04T03:11:44.511Z,0.00
2018-05-04T03:12:44.477Z,0.00
2018-05-04T03:13:44.445Z,0.00
2018-05-04T03:14:44.469Z,0.00
2018-05-04T03:15:44.397Z,0.00
2018-05-04T03:16:44.364Z,0.00
2018-05-04T03:17:44.333Z,0.00
2018-05-04T03:18:44.305Z,0.00
2018-05-04T03:19:44.281Z,0.00
2018-05-04T03:20:44.245Z,0.00
2018-05-04T03:21:44.218Z,0.00
2018-05-04T03:22:44.180Z,0.00
2018-05-04T03:23:44.155Z,0.00
2018-05-04T03:24:44.116Z,0.00
2018-05-04T03:25:44.087Z,0.00
2018-05-04T03:26:44.067Z,4.00
2018-05-04T03:27:44.038Z,4.00
2018-05-04T03:28:44.007Z,4.00
2018-05-04T03:29:43.982Z,0.00
2018-05-04T03:30:43.940Z,4.00
2018-05-04T03:31:43.916Z,4.00
2018-05-04T03:32:43.903Z,4.00
2018-05-04T03:33:43.858Z,4.00
2018-05-04T03:34:43.825Z,4.00
2018-05-04T03:35:43.806Z,8.00
2018-05-04T03:36:43.765Z,8.00
2018-05-04T03:37:43.734Z,8.00
2018-05-04T03:38:43.700Z,12.00
2018-05-04T03:39:43.669Z,12.00
2018-05-04T03:40:43.646Z,12.00
2018-05-04T03:41:43.647Z,16.00
2018-05-04T03:42:43.631Z,16.00
2018-05-04T03:43:43.554Z,20.00
2018-05-04T03:44:43.530Z,24.00
2018-05-04T03:45:43.488Z,28.00
2018-05-04T03:46:43.462Z,32.00
2018-05-04T03:47:43.448Z,32.00
2018-05-04T03:48:43.402Z,40.00
2018-05-04T03:49:43.367Z,44.00
2018-05-04T03:50:43.355Z,48.00
2018-05-04T03:51:43.318Z,56.00
2018-05-04T03:52:43.287Z,64.00
2018-05-04T03:53:43.268Z,72.00
2018-05-04T03:54:43.222Z,80.00
2018-05-04T03:55:43.194Z,88.00
2018-05-04T03:56:43.160Z,100.00
2018-05-04T03:57:43.126Z,112.00
2018-05-04T03:58:43.111Z,120.00
2018-05-04T03:59:43.074Z,132.00
2018-05-04T04:00:43.047Z,144.00
2018-05-04T04:01:43.022Z,160.00
2018-05-04T04:02:42.984Z,172.00
2018-05-04T04:03:42.946Z,188.00
2018-05-04T04:04:42.916Z,204.00
2018-05-04T04:05:42.897Z,224.00
2018-05-04T04:06:42.868Z,240.00
2018-05-04T04:07:42.824Z,256.00
2018-05-04T04:08:42.794Z,276.00
2018-05-04T04:09:42.764Z,296.00
2018-05-04T04:10:42.736Z,320.00
2018-05-04T04:11:42.726Z,340.00
2018-05-04T04:12:42.789Z,360.00
2018-05-04T04:13:42.656Z,384.00
2018-05-04T04:14:42.642Z,408.00
2018-05-04T04:15:42.591Z,428.00
2018-05-04T04:16:42.558Z,452.00
2018-05-04T04:17:42.545Z,476.00
2018-05-04T04:18:42.497Z,504.00
2018-05-04T04:19:42.468Z,528.00
2018-05-04T04:20:42.457Z,556.00
2018-05-04T04:21:42.404Z,580.00
2018-05-04T04:22:42.386Z,608.00
2018-05-04T04:23:42.366Z,632.00
2018-05-04T04:24:42.320Z,664.00
2018-05-04T04:25:42.296Z,692.00
2018-05-04T04:26:42.277Z,716.00
2018-05-04T04:27:42.239Z,744.00
2018-05-04T04:28:42.196Z,772.00
2018-05-04T04:29:42.163Z,800.00
2018-05-04T04:30:42.148Z,828.00
2018-05-04T04:31:42.108Z,856.00
2018-05-04T04:32:42.081Z,884.00
2018-05-04T04:33:42.058Z,908.00
2018-05-04T04:34:42.019Z,936.00
2018-05-04T04:35:41.985Z,964.00
2018-05-04T04:36:41.955Z,992.00
2018-05-04T04:37:41.939Z,1020.00
2018-05-04T04:38:41.907Z,1048.00
2018-05-04T04:39:41.872Z,1076.00
2018-05-04T04:40:41.839Z,1100.00
2018-05-04T04:41:41.861Z,1128.00
2018-05-04T04:42:41.775Z,1156.00
2018-05-04T04:43:41.750Z,1184.00
2018-05-04T04:44:41.725Z,1208.00
2018-05-04T04:45:41.691Z,1236.00
2018-05-04T04:46:41.658Z,1256.00
2018-05-04T04:47:41.626Z,1288.00
2018-05-04T04:48:41.598Z,1312.00
2018-05-04T04:49:41.571Z,1336.00
2018-05-04T04:50:41.538Z,1364.00
2018-05-04T04:51:41.572Z,1388.00
2018-05-04T04:52:41.483Z,1412.00
2018-05-04T04:53:41.448Z,1436.00
2018-05-04T04:54:41.420Z,1460.00
2018-05-04T04:55:41.393Z,1488.00
2018-05-04T04:56:41.363Z,1508.00
2018-05-04T04:57:41.332Z,1536.00
2018-05-04T04:58:41.309Z,1560.00
2018-05-04T04:59:41.269Z,1584.00
2018-05-04T05:00:41.234Z,1608.00
2018-05-04T05:01:41.208Z,1632.00
2018-05-04T05:02:41.179Z,1656.00
2018-05-04T05:03:41.158Z,1680.00
2018-05-04T05:04:41.122Z,1700.00
2018-05-04T05:05:41.098Z,1728.00
2018-05-04T05:06:41.068Z,1748.00
2018-05-04T05:07:41.026Z,1772.00
2018-05-04T05:08:41.007Z,1796.00
2018-05-04T05:09:40.986Z,1812.00
2018-05-04T05:10:40.948Z,1836.00
2018-05-04T05:11:40.909Z,1852.00
2018-05-04T05:12:40.874Z,1876.00
2018-05-04T05:13:40.862Z,1892.00
2018-05-04T05:14:40.841Z,1920.00
2018-05-04T05:15:40.800Z,1936.00
2018-05-04T05:16:40.765Z,1960.00
2018-05-04T05:17:40.732Z,1980.00
2018-05-04T05:18:40.711Z,2000.00
2018-05-04T05:19:40.684Z,2024.00
2018-05-04T05:20:40.644Z,2040.00
2018-05-04T05:21:40.612Z,2060.00
2018-05-04T05:22:40.590Z,2088.00
2018-05-04T05:23:40.573Z,2104.00
2018-05-04T05:24:40.582Z,2124.00
2018-05-04T05:25:40.490Z,2140.00
2018-05-04T05:26:40.460Z,2156.00
2018-05-04T05:27:40.441Z,2180.00
2018-05-04T05:28:40.589Z,2200.00
2018-05-04T05:29:40.385Z,2224.00
2018-05-04T05:30:40.345Z,2252.00
2018-05-04T05:31:40.311Z,2256.00
2018-05-04T05:32:40.289Z,2272.00
2018-05-04T05:33:40.261Z,2304.00
2018-05-04T05:34:40.227Z,2308.00
2018-05-04T05:35:40.226Z,2328.00
2018-05-04T05:36:40.179Z,2348.00
2018-05-04T05:37:40.141Z,2364.00
2018-05-04T05:38:40.107Z,2384.00
2018-05-04T05:39:40.105Z,2404.00
2018-05-04T05:40:40.049Z,2416.00
2018-05-04T05:41:40.025Z,2432.00
2018-05-04T05:42:39.987Z,2452.00
2018-05-04T05:43:39.966Z,2460.00
2018-05-04T05:44:39.930Z,2480.00
2018-05-04T05:45:39.905Z,2492.00
2018-05-04T05:46:39.867Z,2508.00
2018-05-04T05:47:39.841Z,2528.00
2018-05-04T05:48:39.815Z,2540.00
2018-05-04T05:49:39.792Z,2556.00
2018-05-04T05:50:39.754Z,2576.00
2018-05-04T05:51:39.720Z,2588.00
2018-05-04T05:52:39.701Z,2616.00
2018-05-04T05:53:39.661Z,2636.00
2018-05-04T05:54:39.676Z,2644.00
2018-05-04T05:55:39.611Z,2652.00
2018-05-04T05:56:39.596Z,2668.00
2018-05-04T05:57:39.547Z,2688.00
2018-05-04T05:58:39.513Z,2700.00
2018-05-04T05:59:39.485Z,2708.00
2018-05-04T06:00:39.464Z,2724.00
2018-05-04T06:01:39.442Z,2740.00
2018-05-04T06:02:39.399Z,2752.00
2018-05-04T06:03:39.367Z,2768.00
2018-05-04T06:04:39.396Z,2784.00
2018-05-04T06:05:39.318Z,2796.00
2018-05-04T06:06:39.315Z,2816.00
2018-05-04T06:07:39.252Z,2816.00
2018-05-04T06:08:39.218Z,2840.00
2018-05-04T06:09:39.245Z,2856.00
2018-05-04T06:10:39.162Z,2848.00
2018-05-04T06:11:39.140Z,2876.00
2018-05-04T06:12:39.116Z,2872.00
2018-05-04T06:13:39.080Z,2896.00
2018-05-04T06:14:39.051Z,2904.00
2018-05-04T06:15:39.039Z,2920.00
2018-05-04T06:16:38.989Z,2920.00
2018-05-04T06:17:38.972Z,2924.00
2018-05-04T06:18:38.930Z,2936.00
2018-05-04T06:19:38.900Z,2964.00
2018-05-04T06:20:38.865Z,2952.00
2018-05-04T06:21:38.862Z,2976.00
2018-05-04T06:22:38.814Z,2976.00
2018-05-04T06:23:38.785Z,2984.00
2018-05-04T06:24:38.777Z,2996.00
2018-05-04T06:25:38.732Z,3004.00
2018-05-04T06:26:38.698Z,3008.00
2018-05-04T06:27:38.667Z,3020.00
2018-05-04T06:28:38.638Z,3028.00
2018-05-04T06:29:38.613Z,3044.00
2018-05-04T06:30:38.583Z,3048.00
2018-05-04T06:31:38.549Z,3056.00
2018-05-04T06:32:38.521Z,3060.00
2018-05-04T06:33:38.497Z,3068.00
2018-05-04T06:34:38.462Z,3076.00
2018-05-04T06:35:38.438Z,3076.00
2018-05-04T06:36:38.415Z,3088.00
2018-05-04T06:37:38.380Z,3100.00
2018-05-04T06:38:38.349Z,3112.00
2018-05-04T06:39:38.370Z,3116.00
2018-05-04T06:40:38.289Z,3136.00
2018-05-04T06:41:38.264Z,3152.00
2018-05-04T06:42:38.234Z,3144.00
2018-05-04T06:43:38.212Z,3156.00
2018-05-04T06:44:38.182Z,3152.00
2018-05-04T06:45:38.146Z,3156.00
2018-05-04T06:46:38.116Z,3160.00
2018-05-04T06:47:38.090Z,3168.00
2018-05-04T06:48:38.097Z,3200.00
2018-05-04T06:49:38.035Z,3200.00
2018-05-04T06:50:38.005Z,3220.00
2018-05-04T06:51:37.973Z,3212.00
2018-05-04T06:52:37.941Z,3208.00
2018-05-04T06:53:37.916Z,3220.00
2018-05-04T06:54:37.890Z,3232.00
2018-05-04T06:55:37.862Z,3244.00
2018-05-04T06:56:37.833Z,3272.00
2018-05-04T06:57:37.816Z,3260.00
2018-05-04T06:58:37.777Z,3276.00
2018-05-04T06:59:37.746Z,3268.00
2018-05-04T07:00:37.714Z,3276.00
2018-05-04T07:01:37.692Z,3296.00
2018-05-04T07:02:37.666Z,3292.00
2018-05-04T07:03:37.645Z,3308.00
2018-05-04T07:04:37.600Z,3336.00
2018-05-04T07:05:37.576Z,3340.00
2018-05-04T07:06:37.546Z,3332.00
2018-05-04T07:07:37.516Z,3332.00
2018-05-04T07:08:37.504Z,3340.00
2018-05-04T07:09:37.463Z,3364.00
2018-05-04T07:10:37.434Z,3360.00
2018-05-04T07:11:37.399Z,3376.00
2018-05-04T07:12:37.371Z,3384.00
2018-05-04T07:13:37.343Z,3380.00
2018-05-04T07:14:37.316Z,3376.00
2018-05-04T07:15:37.290Z,3376.00
2018-05-04T07:16:37.298Z,3396.00
2018-05-04T07:17:37.235Z,3396.00
2018-05-04T07:18:37.204Z,3408.00
2018-05-04T07:19:37.175Z,3412.00
2018-05-04T07:20:37.152Z,3432.00
2018-05-04T07:21:37.127Z,3436.00
2018-05-04T07:22:37.091Z,3440.00
2018-05-04T07:23:37.065Z,3432.00
2018-05-04T07:24:37.042Z,3464.00
2018-05-04T07:25:37.005Z,3448.00
2018-05-04T07:26:36.981Z,3460.00
2018-05-04T07:27:36.957Z,3460.00
2018-05-04T07:28:36.999Z,3480.00
2018-05-04T07:29:36.897Z,3492.00
2018-05-04T07:30:36.870Z,3476.00
2018-05-04T07:31:36.834Z,3484.00
2018-05-04T07:32:36.806Z,3488.00
2018-05-04T07:33:36.787Z,3492.00
2018-05-04T07:34:36.753Z,3492.00
2018-05-04T07:35:36.724Z,3496.00
2018-05-04T07:36:36.700Z,3500.00
2018-05-04T07:37:36.671Z,3520.00
2018-05-04T07:38:36.645Z,3520.00
2018-05-04T07:39:36.616Z,3532.00
2018-05-04T07:40:36.589Z,3544.00
2018-05-04T07:41:36.566Z,3536.00
2018-05-04T07:42:36.533Z,3560.00
2018-05-04T07:43:36.503Z,3576.00
2018-05-04T07:44:36.475Z,3564.00
2018-05-04T07:45:36.447Z,3576.00
2018-05-04T07:46:36.427Z,3580.00
2018-05-04T07:47:36.394Z,3588.00
2018-05-04T07:48:36.438Z,3600.00
2018-05-04T07:49:36.337Z,3612.00
2018-05-04T07:50:36.306Z,3648.00
2018-05-04T07:51:36.278Z,3648.00
2018-05-04T07:52:36.259Z,3672.00
2018-05-04T07:53:36.228Z,3680.00
2018-05-04T07:54:36.200Z,3668.00
2018-05-04T07:55:36.167Z,3688.00
2018-05-04T07:56:36.141Z,3688.00
2018-05-04T07:57:36.115Z,3700.00
2018-05-04T07:58:36.085Z,3708.00
2018-05-04T07:59:36.060Z,3724.00
2018-05-04T08:00:36.097Z,3740.00
2018-05-04T08:01:36.008Z,3748.00
2018-05-04T08:02:35.977Z,3784.00
2018-05-04T08:03:35.952Z,3784.00
2018-05-04T08:04:35.918Z,3772.00
2018-05-04T08:05:35.900Z,3828.00
2018-05-04T08:06:35.871Z,3800.00
2018-05-04T08:07:35.836Z,3816.00
2018-05-04T08:08:35.884Z,3832.00
2018-05-04T08:09:35.784Z,3856.00
2018-05-04T08:10:35.758Z,3868.00
2018-05-04T08:11:35.732Z,3888.00
2018-05-04T08:12:35.704Z,3892.00
2018-05-04T08:13:35.677Z,3924.00
2018-05-04T08:14:35.652Z,3908.00
2018-05-04T08:15:35.621Z,3924.00
2018-05-04T08:16:35.591Z,3936.00
2018-05-04T08:17:35.561Z,3952.00
2018-05-04T08:18:35.536Z,3980.00
2018-05-04T08:19:35.514Z,4020.00
2018-05-04T08:20:35.486Z,4008.00
2018-05-04T08:21:35.453Z,4008.00
2018-05-04T08:22:35.432Z,4020.00
2018-05-04T08:23:35.408Z,4032.00
2018-05-04T08:24:35.379Z,4048.00
2018-05-04T08:25:35.352Z,4072.00
2018-05-04T08:26:35.324Z,4100.00
2018-05-04T08:27:35.292Z,4092.00
2018-05-04T08:28:35.267Z,4100.00
2018-05-04T08:29:35.241Z,4112.00
2018-05-04T08:30:35.213Z,4136.00
2018-05-04T08:31:35.188Z,4140.00
2018-05-04T08:32:35.169Z,4160.00
2018-05-04T08:33:35.139Z,4172.00
2018-05-04T08:34:35.113Z,4212.00
2018-05-04T08:35:35.080Z,4232.00
2018-05-04T08:36:35.054Z,4240.00
2018-05-04T08:37:35.033Z,4264.00
2018-05-04T08:38:35.001Z,4288.00
2018-05-04T08:39:34.972Z,4312.00
2018-05-04T08:40:35.047Z,4340.00
2018-05-04T08:41:34.920Z,4356.00
2018-05-04T08:42:34.894Z,4368.00
2018-05-04T08:43:34.868Z,4388.00
2018-05-04T08:44:34.851Z,4412.00
2018-05-04T08:45:34.823Z,4416.00
2018-05-04T08:46:34.798Z,4436.00
2018-05-04T08:47:34.761Z,4460.00
2018-05-04T08:48:34.734Z,4484.00
2018-05-04T08:49:34.708Z,4492.00
2018-05-04T08:50:34.680Z,4516.00
2018-05-04T08:51:34.655Z,4548.00
2018-05-04T08:52:34.631Z,4556.00
2018-05-04T08:53:34.599Z,4572.00
2018-05-04T08:54:34.578Z,4592.00
2018-05-04T08:55:34.559Z,4608.00
2018-05-04T08:56:34.534Z,4620.00
2018-05-04T08:57:34.526Z,4640.00
2018-05-04T08:58:34.473Z,4636.00
2018-05-04T08:59:34.448Z,4660.00
2018-05-04T09:00:34.416Z,4668.00
2018-05-04T09:01:34.390Z,4708.00
2018-05-04T09:02:34.366Z,4700.00
2018-05-04T09:03:34.344Z,4720.00
2018-05-04T09:04:34.320Z,4736.00
2018-05-04T09:05:34.367Z,4756.00
2018-05-04T09:06:34.262Z,4768.00
2018-05-04T09:07:34.239Z,4816.00
2018-05-04T09:08:34.207Z,4824.00
2018-05-04T09:09:34.188Z,4852.00
2018-05-04T09:10:34.159Z,4860.00
2018-05-04T09:11:34.135Z,4876.00
2018-05-04T09:12:34.104Z,4872.00
2018-05-04T09:13:34.087Z,4864.00
2018-05-04T09:14:34.058Z,4868.00
2018-05-04T09:15:34.064Z,4880.00
2018-05-04T09:16:34.130Z,4876.00
2018-05-04T09:17:33.980Z,4880.00
2018-05-04T09:18:33.954Z,4892.00
2018-05-04T09:19:33.975Z,4944.00
2018-05-04T09:20:33.900Z,4864.00
2018-05-04T09:21:33.876Z,4864.00
2018-05-04T09:22:33.849Z,4908.00
2018-05-04T09:23:33.824Z,4912.00
2018-05-04T09:24:33.808Z,4928.00
2018-05-04T09:25:33.772Z,4952.00
2018-05-04T09:26:33.746Z,4956.00
2018-05-04T09:27:33.722Z,4948.00
2018-05-04T09:28:33.749Z,4976.00
2018-05-04T09:29:33.677Z,4980.00
2018-05-04T09:30:33.649Z,5020.00
2018-05-04T09:31:33.621Z,5024.00
2018-05-04T09:32:33.595Z,5044.00
2018-05-04T09:33:33.577Z,5068.00
2018-05-04T09:34:33.548Z,5088.00
2018-05-04T09:35:33.528Z,5096.00
2018-05-04T09:36:33.498Z,5116.00
2018-05-04T09:37:33.478Z,5128.00
2018-05-04T09:38:33.449Z,5140.00
2018-05-04T09:39:33.417Z,5124.00
2018-05-04T09:40:33.390Z,5152.00
2018-05-04T09:41:33.371Z,5140.00
2018-05-04T09:42:33.349Z,5148.00
2018-05-04T09:43:33.328Z,5192.00
2018-05-04T09:44:33.291Z,5200.00
2018-05-04T09:45:33.268Z,5172.00
2018-05-04T09:46:33.241Z,5164.00
2018-05-04T09:47:33.217Z,5196.00
2018-05-04T09:48:33.201Z,5208.00
2018-05-04T09:49:33.174Z,5212.00
2018-05-04T09:50:33.143Z,5188.00
2018-05-04T09:51:33.120Z,5188.00
2018-05-04T09:52:33.094Z,5172.00
2018-05-04T09:53:33.066Z,5172.00
2018-05-04T09:54:33.046Z,5168.00
2018-05-04T09:55:33.028Z,5176.00
2018-05-04T09:56:33.000Z,5164.00
2018-05-04T09:57:32.970Z,5180.00
2018-05-04T09:58:32.947Z,5172.00
2018-05-04T09:59:32.930Z,5168.00
2018-05-04T10:00:32.902Z,5164.00
2018-05-04T10:01:32.875Z,5164.00
2018-05-04T10:02:32.849Z,5188.00
2018-05-04T10:03:32.901Z,5172.00
2018-05-04T10:04:32.795Z,5180.00
2018-05-04T10:05:32.856Z,5148.00
2018-05-04T10:06:32.789Z,5160.00
2018-05-04T10:07:32.778Z,5132.00
2018-05-04T10:08:32.789Z,5132.00
2018-05-04T10:09:32.801Z,5132.00
2018-05-04T10:10:32.736Z,5136.00
2018-05-04T10:11:32.715Z,5128.00
2018-05-04T10:12:32.609Z,5128.00
2018-05-04T10:13:32.583Z,5132.00
2018-05-04T10:14:32.554Z,5132.00
2018-05-04T10:15:32.530Z,5116.00
2018-05-04T10:16:32.504Z,5124.00
2018-05-04T10:17:32.478Z,5104.00
2018-05-04T10:18:32.459Z,5092.00
2018-05-04T10:19:32.565Z,5088.00
2018-05-04T10:20:32.544Z,5092.00
2018-05-04T10:21:32.565Z,5096.00
2018-05-04T10:22:32.484Z,5112.00
2018-05-04T10:23:32.404Z,5092.00
2018-05-04T10:24:32.462Z,5072.00
2018-05-04T10:25:32.289Z,5080.00
2018-05-04T10:26:32.262Z,5108.00
2018-05-04T10:27:32.244Z,5096.00
2018-05-04T10:28:32.219Z,5084.00
2018-05-04T10:29:32.192Z,5092.00
2018-05-04T10:30:32.164Z,5084.00
2018-05-04T10:31:32.240Z,5080.00
2018-05-04T10:32:32.129Z,5084.00
2018-05-04T10:33:32.102Z,5080.00
2018-05-04T10:34:32.080Z,5088.00
2018-05-04T10:35:32.044Z,5096.00
2018-05-04T10:36:32.022Z,5076.00
2018-05-04T10:37:32.001Z,5064.00
2018-05-04T10:38:32.022Z,5068.00
2018-05-04T10:39:31.961Z,5060.00
2018-05-04T10:40:31.937Z,5076.00
2018-05-04T10:41:31.906Z,5076.00
2018-05-04T10:42:31.885Z,5076.00
2018-05-04T10:43:31.854Z,5080.00
2018-05-04T10:44:31.831Z,5088.00
2018-05-04T10:45:31.815Z,5096.00
2018-05-04T10:46:31.798Z,5096.00
2018-05-04T10:47:31.762Z,5084.00
2018-05-04T10:48:31.742Z,5088.00
2018-05-04T10:49:31.716Z,5092.00
2018-05-04T10:50:31.689Z,5092.00
2018-05-04T10:51:31.671Z,5096.00
2018-05-04T10:52:31.649Z,5108.00
2018-05-04T10:53:31.624Z,5100.00
2018-05-04T10:54:31.600Z,5104.00
2018-05-04T10:55:31.575Z,5104.00
2018-05-04T10:56:31.553Z,5108.00
2018-05-04T10:57:31.543Z,5112.00
2018-05-04T10:58:31.501Z,5104.00
2018-05-04T10:59:31.494Z,5108.00
2018-05-04T11:00:31.460Z,5120.00
2018-05-04T11:01:31.437Z,5132.00
2018-05-04T11:02:31.407Z,5132.00
2018-05-04T11:03:31.403Z,5156.00
2018-05-04T11:04:31.373Z,5164.00
2018-05-04T11:05:31.347Z,5176.00
2018-05-04T11:06:31.327Z,5188.00
2018-05-04T11:07:31.296Z,5192.00
2018-05-04T11:08:31.275Z,5168.00
2018-05-04T11:09:31.250Z,5236.00
2018-05-04T11:10:31.225Z,5236.00
2018-05-04T11:11:31.208Z,5260.00
2018-05-04T11:12:31.185Z,5252.00
2018-05-04T11:13:31.166Z,5244.00
2018-05-04T11:14:31.147Z,5248.00
2018-05-04T11:15:31.107Z,5256.00
2018-05-04T11:16:31.095Z,5268.00
2018-05-04T11:17:31.071Z,5252.00
2018-05-04T11:18:31.061Z,5284.00
2018-05-04T11:19:31.037Z,5284.00
2018-05-04T11:20:31.104Z,5304.00
2018-05-04T11:21:30.978Z,5324.00
2018-05-04T11:22:30.952Z,5332.00
2018-05-04T11:23:30.933Z,5456.00
2018-05-04T11:24:30.919Z,5852.00
2018-05-04T11:25:30.914Z,6028.00
2018-05-04T11:26:30.868Z,6060.00
2018-05-04T11:27:30.838Z,6084.00
2018-05-04T11:28:30.817Z,6148.00
2018-05-04T11:29:30.795Z,6148.00
2018-05-04T11:30:30.774Z,6148.00
2018-05-04T11:31:30.758Z,6192.00
2018-05-04T11:32:30.728Z,6212.00
2018-05-04T11:33:30.720Z,6240.00
2018-05-04T11:34:30.678Z,6276.00
2018-05-04T11:35:30.664Z,6304.00
2018-05-04T11:36:30.647Z,6368.00
2018-05-04T11:37:30.625Z,6432.00
2018-05-04T11:38:30.603Z,6480.00
2018-05-04T11:39:30.576Z,6544.00
2018-05-04T11:40:30.563Z,6628.00
2018-05-04T11:41:30.538Z,6764.00
2018-05-04T11:42:30.514Z,6904.00
2018-05-04T11:43:30.502Z,7192.00
2018-05-04T11:44:30.480Z,7500.00
2018-05-04T11:45:30.458Z,7860.00
2018-05-04T11:46:30.442Z,8060.00
2018-05-04T11:47:30.410Z,8136.00
2018-05-04T11:48:30.396Z,8196.00
2018-05-04T11:49:30.460Z,8120.00
2018-05-04T11:50:30.361Z,7972.00
2018-05-04T11:51:30.336Z,7860.00
2018-05-04T11:52:30.323Z,7724.00
2018-05-04T11:53:30.300Z,7640.00
2018-05-04T11:54:30.279Z,7616.00
2018-05-04T11:55:30.265Z,7648.00
2018-05-04T11:56:30.247Z,7656.00
2018-05-04T11:57:30.224Z,7672.00
2018-05-04T11:58:30.210Z,7732.00
2018-05-04T11:59:30.185Z,7772.00
2018-05-04T12:00:30.169Z,7836.00
2018-05-04T12:01:30.159Z,7880.00
2018-05-04T12:02:30.181Z,7904.00
2018-05-04T12:03:30.122Z,7984.00
2018-05-04T12:04:30.097Z,8096.00
2018-05-04T12:05:30.082Z,8088.00
2018-05-04T12:06:30.054Z,8172.00
2018-05-04T12:07:30.043Z,8204.00
2018-05-04T12:08:30.031Z,8272.00
2018-05-04T12:09:30.007Z,8352.00
2018-05-04T12:10:29.989Z,8336.00
2018-05-04T12:11:29.974Z,8456.00
2018-05-04T12:12:29.952Z,8468.00
2018-05-04T12:13:29.940Z,8544.00
2018-05-04T12:14:29.924Z,8616.00
2018-05-04T12:15:29.908Z,8664.00
2018-05-04T12:16:29.927Z,8708.00
2018-05-04T12:17:29.873Z,8764.00
2018-05-04T12:18:29.858Z,8844.00
2018-05-04T12:19:29.838Z,8912.00
2018-05-04T12:20:29.818Z,8980.00
2018-05-04T12:21:29.804Z,9012.00
2018-05-04T12:22:29.810Z,9036.00
2018-05-04T12:23:29.771Z,9108.00
2018-05-04T12:24:29.748Z,9140.00
2018-05-04T12:25:29.738Z,9180.00
2018-05-04T12:26:29.723Z,9204.00
2018-05-04T12:27:29.708Z,9224.00
2018-05-04T12:28:29.704Z,9300.00
2018-05-04T12:29:29.671Z,9388.00
2018-05-04T12:30:29.669Z,9416.00
2018-05-04T12:31:29.633Z,9460.00
2018-05-04T12:32:29.623Z,9560.00
2018-05-04T12:33:29.606Z,9576.00
2018-05-04T12:34:29.587Z,9672.00
2018-05-04T12:35:29.584Z,9724.00
2018-05-04T12:36:29.573Z,9812.00
2018-05-04T12:37:29.546Z,9852.00
2018-05-04T12:38:29.665Z,9900.00
2018-05-04T12:39:29.517Z,9968.00
2018-05-04T12:40:29.508Z,10004.00
2018-05-04T12:41:29.487Z,10108.00
2018-05-04T12:42:29.472Z,10144.00
2018-05-04T12:43:29.451Z,10228.00
2018-05-04T12:44:29.449Z,10280.00
2018-05-04T12:45:29.436Z,10336.00
2018-05-04T12:46:29.411Z,10372.00
2018-05-04T12:47:29.402Z,10464.00
2018-05-04T12:48:29.382Z,10528.00
2018-05-04T12:49:29.370Z,10580.00
2018-05-04T12:50:29.355Z,10604.00
2018-05-04T12:51:29.334Z,10664.00
2018-05-04T12:52:29.329Z,10692.00
2018-05-04T12:53:29.372Z,10780.00
2018-05-04T12:54:29.300Z,10868.00
2018-05-04T12:55:29.279Z,10928.00
2018-05-04T12:56:29.270Z,10968.00
2018-05-04T12:57:29.256Z,10992.00
2018-05-04T12:58:29.237Z,11068.00
2018-05-04T12:59:29.229Z,11108.00
2018-05-04T13:00:29.220Z,11184.00